Time;durP1;ratioP1;P1;durP2;ratioP2;P2;SDS_P1;SDS_P2;PMS_P1;PMS_P2;Temp;Humidity;BMP_temperature;BMP_pressure;BME280_temperature;BME280_humidity;BME280_pressure;Samples;Min_cycle;Max_cycle;Signal;HPM_P1;HPM_P2
2022/12/31 00:02:03;;;;;;;1999.90;999.90;;;12.80;99.90;;;;;;6376717;22;20003;-78
2022/12/31 00:04:29;;;;;;;1999.90;999.90;;;12.80;99.90;;;;;;6348987;22;20019;-78
2022/12/31 00:06:54;;;;;;;1999.90;999.90;;;12.70;99.90;;;;;;6348612;22;20433;-78
2022/12/31 00:09:20;;;;;;;1999.90;999.90;;;12.70;99.90;;;;;;6376854;22;20007;-78
2022/12/31 00:11:45;;;;;;;1999.90;999.90;;;12.80;99.90;;;;;;6376560;22;20003;-78
2022/12/31 00:14:11;;;;;;;1999.90;999.90;;;12.80;99.90;;;;;;6376914;22;20022;-79
2022/12/31 00:16:39;;;;;;;1999.90;999.90;;;12.70;99.90;;;;;;6376590;22;20433;-78
2022/12/31 00:19:06;;;;;;;1999.90;999.90;;;12.60;99.90;;;;;;6348652;22;20068;-78
2022/12/31 00:21:33;;;;;;;1999.90;999.90;;;12.60;99.90;;;;;;6349220;22;20412;-78
2022/12/31 00:23:59;;;;;;;1999.90;999.90;;;12.50;99.90;;;;;;6378344;22;20477;-78
2022/12/31 00:26:28;;;;;;;1999.90;999.90;;;12.40;99.90;;;;;;6377855;22;20003;-78
2022/12/31 00:28:54;;;;;;;1999.90;999.90;;;12.40;99.90;;;;;;6349899;22;20015;-78
2022/12/31 05:00:37;;;;;;;1999.90;999.90;;;13.90;99.90;;;;;;6319946;22;20454;-76
2022/12/31 05:03:02;;;;;;;1999.90;999.90;;;13.80;99.90;;;;;;6348414;22;20019;-76
2022/12/31 05:05:28;;;;;;;1999.90;999.90;;;13.80;99.90;;;;;;6376421;22;20003;-76
2022/12/31 05:07:54;;;;;;;1999.90;999.90;;;13.80;99.90;;;;;;6349165;22;20007;-76
2022/12/31 05:10:19;;;;;;;1999.90;999.90;;;14.00;99.90;;;;;;6377760;22;20011;-77
2022/12/31 05:12:45;;;;;;;1999.90;999.90;;;14.10;99.90;;;;;;6349846;22;20015;-76
2022/12/31 05:15:10;;;;;;;1999.90;999.90;;;14.20;99.90;;;;;;6350701;22;20418;-76
2022/12/31 05:17:36;;;;;;;1999.90;999.90;;;14.20;99.90;;;;;;6377555;22;20007;-77
2022/12/31 05:20:01;;;;;;;1999.90;999.90;;;14.20;99.90;;;;;;6349742;22;20116;-76
2022/12/31 05:22:30;;;;;;;1999.90;999.90;;;14.00;99.90;;;;;;6349805;22;20078;-76
2022/12/31 05:24:57;;;;;;;1999.90;999.90;;;14.10;99.90;;;;;;6349590;22;20007;-76
2022/12/31 05:27:23;;;;;;;1999.90;999.90;;;14.10;99.90;;;;;;6377676;22;20002;-76
2022/12/31 05:29:49;;;;;;;1999.90;999.90;;;14.10;99.90;;;;;;6377216;22;20010;-77
2022/12/31 05:32:14;;;;;;;1999.90;999.90;;;14.20;99.90;;;;;;6349609;22;20011;-76
2022/12/31 05:34:40;;;;;;;1999.90;999.90;;;14.10;99.90;;;;;;6377691;22;20011;-76
2022/12/31 05:37:05;;;;;;;1999.90;999.90;;;14.30;99.90;;;;;;6349520;22;20543;-76
2022/12/31 05:39:31;;;;;;;1999.90;999.90;;;14.30;99.90;;;;;;6377939;22;20038;-76
2022/12/31 05:41:56;;;;;;;1999.90;999.90;;;14.40;99.90;;;;;;6349614;22;20034;-76
2022/12/31 05:44:22;;;;;;;1999.90;999.90;;;14.60;99.90;;;;;;6377755;22;20060;-76
2022/12/31 05:46:47;;;;;;;1999.90;999.90;;;14.70;99.90;;;;;;6349464;22;20014;-76
2022/12/31 05:49:13;;;;;;;1999.90;999.90;;;14.70;99.90;;;;;;6377797;22;20411;-76
2022/12/31 05:51:38;;;;;;;1999.90;999.90;;;14.70;99.90;;;;;;6377409;22;20346;-76
2022/12/31 05:54:04;;;;;;;1999.90;999.90;;;14.80;99.90;;;;;;6377823;22;20388;-76
2022/12/31 05:56:30;;;;;;;1999.90;999.90;;;14.80;99.90;;;;;;6377517;22;20010;-76
2022/12/31 05:58:55;;;;;;;1999.90;999.90;;;14.90;99.90;;;;;;6377705;22;20007;-76
2022/12/31 06:01:21;;;;;;;1999.90;999.90;;;14.80;99.90;;;;;;6349239;22;20097;-77
2022/12/31 06:03:46;;;;;;;1999.90;999.90;;;14.90;99.90;;;;;;6349603;22;20007;-76
2022/12/31 06:06:12;;;;;;;1999.90;999.90;;;14.80;99.90;;;;;;6349475;22;20030;-76
2022/12/31 06:08:38;;;;;;;1999.90;999.90;;;14.90;99.90;;;;;;6377730;22;20007;-76
2022/12/31 06:11:03;;;;;;;1999.90;999.90;;;14.90;99.90;;;;;;6377478;22;20094;-76
2022/12/31 06:13:29;;;;;;;1999.90;999.90;;;14.90;99.90;;;;;;6377699;22;20018;-76
2022/12/31 06:15:55;;;;;;;1999.90;999.90;;;15.00;99.90;;;;;;6377508;22;20066;-76
2022/12/31 06:18:20;;;;;;;1999.90;999.90;;;15.10;99.90;;;;;;6377017;22;20011;-77
2022/12/31 06:20:46;;;;;;;1999.90;999.90;;;15.10;99.90;;;;;;6377460;22;20010;-76
2022/12/31 06:23:11;;;;;;;1999.90;999.90;;;15.10;99.90;;;;;;6377418;22;20007;-76
2022/12/31 06:25:37;;;;;;;1999.90;999.90;;;15.10;99.90;;;;;;6377778;22;19999;-76
2022/12/31 06:28:04;;;;;;;1999.90;999.90;;;15.10;99.90;;;;;;6377549;22;20007;-76
2022/12/31 06:30:29;;;;;;;1999.90;999.90;;;15.10;99.90;;;;;;6377279;22;20021;-76
2022/12/31 06:32:55;;;;;;;1999.90;999.90;;;15.20;99.90;;;;;;6349180;22;20033;-77
2022/12/31 06:35:21;;;;;;;1999.90;999.90;;;15.20;99.90;;;;;;6377488;22;20010;-76
2022/12/31 06:37:46;;;;;;;1999.90;999.90;;;15.20;99.90;;;;;;6377314;22;20051;-76
2022/12/31 06:40:12;;;;;;;1999.90;999.90;;;15.10;99.90;;;;;;6349309;22;20435;-76
2022/12/31 06:42:38;;;;;;;1999.90;999.90;;;15.10;99.90;;;;;;6377432;22;20480;-76
2022/12/31 06:45:04;;;;;;;1999.90;999.90;;;15.10;99.90;;;;;;6377593;22;20009;-76
2022/12/31 06:47:30;;;;;;;1999.90;999.90;;;15.00;99.90;;;;;;6377305;22;20042;-76
2022/12/31 06:49:55;;;;;;;1999.90;999.90;;;14.90;99.90;;;;;;6377255;22;20049;-79
2022/12/31 06:52:21;;;;;;;1999.90;999.90;;;14.90;99.90;;;;;;6377203;22;20003;-78
2022/12/31 06:54:47;;;;;;;1999.90;999.90;;;15.00;99.90;;;;;;6377671;22;20433;-78
2022/12/31 06:57:13;;;;;;;1999.90;999.90;;;15.00;99.90;;;;;;6377007;22;20414;-78
2022/12/31 06:59:39;;;;;;;1999.90;999.90;;;15.20;99.90;;;;;;6377836;22;20094;-78
2022/12/31 07:02:15;;;;;;;1999.90;999.90;;;15.20;99.90;;;;;;6376737;22;20152;-79
2022/12/31 07:05:06;;;;;;;1999.90;999.90;;;15.20;99.90;;;;;;6377544;22;20674;-78
2022/12/31 07:07:38;;;;;;;1999.90;999.90;;;15.20;99.90;;;;;;6377276;22;20055;-79
2022/12/31 07:10:12;;;;;;;1999.90;999.90;;;15.20;99.90;;;;;;6377616;22;20534;-79
2022/12/31 07:12:59;;;;;;;1999.90;999.90;;;15.20;99.90;;;;;;6349772;22;20002;-78
2022/12/31 07:15:41;;;;;;;1999.90;999.90;;;15.20;99.90;;;;;;6349490;22;20386;-78
2022/12/31 07:18:25;;;;;;;1999.90;999.90;;;15.20;99.90;;;;;;6349256;22;20006;-78
2022/12/31 07:20:51;;;;;;;1999.90;999.90;;;15.20;99.90;;;;;;6377766;22;20454;-79
2022/12/31 07:23:17;;;;;;;1999.90;999.90;;;15.10;99.90;;;;;;6349376;22;20007;-77
2022/12/31 07:26:08;;;;;;;1999.90;999.90;;;15.10;99.90;;;;;;6377480;22;20030;-78
2022/12/31 07:29:10;;;;;;;1999.90;999.90;;;15.00;99.90;;;;;;6348812;22;20010;-77
2022/12/31 07:31:36;;;;;;;1999.90;999.90;;;15.10;99.90;;;;;;6349339;22;20572;-77
2022/12/31 07:34:19;;;;;;;1999.90;999.90;;;15.10;99.90;;;;;;6378125;22;20045;-77
2022/12/31 07:37:04;;;;;;;1999.90;999.90;;;15.10;99.90;;;;;;6349950;22;20488;-77
2022/12/31 07:40:12;;;;;;;1999.90;999.90;;;15.10;99.90;;;;;;6349351;22;20018;-77
2022/12/31 07:43:04;;;;;;;1999.90;999.90;;;15.10;99.90;;;;;;6349406;22;20017;-77
2022/12/31 07:45:50;;;;;;;1999.90;999.90;;;15.10;99.90;;;;;;6377276;22;20090;-78
2022/12/31 07:48:24;;;;;;;1999.90;999.90;;;15.20;99.90;;;;;;6377160;22;19995;-77
2022/12/31 07:50:53;;;;;;;1999.90;999.90;;;15.10;99.90;;;;;;6376873;22;20849;-77
2022/12/31 07:53:19;;;;;;;1999.90;999.90;;;15.20;99.90;;;;;;6377158;22;20010;-78
2022/12/31 07:55:45;;;;;;;1999.90;999.90;;;15.20;99.90;;;;;;6377447;22;20397;-77
2022/12/31 07:58:33;;;;;;;1999.90;999.90;;;15.20;99.90;;;;;;6377239;22;20003;-77
2022/12/31 08:01:00;;;;;;;1999.90;999.90;;;15.20;99.90;;;;;;6377337;22;20021;-78
2022/12/31 08:04:00;;;;;;;1999.90;999.90;;;15.30;99.90;;;;;;6348991;22;20041;-77
2022/12/31 08:06:46;;;;;;;1999.90;999.90;;;15.40;99.90;;;;;;6376944;22;20002;-78
2022/12/31 08:09:29;;;;;;;1999.90;999.90;;;15.40;99.90;;;;;;6377037;22;20426;-77
2022/12/31 08:11:57;;;;;;;1999.90;999.90;;;15.40;99.90;;;;;;6348969;22;20066;-77
2022/12/31 08:14:23;;;;;;;1999.90;999.90;;;15.60;99.90;;;;;;6377210;22;20086;-77
2022/12/31 08:16:49;;;;;;;1999.90;999.90;;;15.60;99.90;;;;;;6348185;22;20010;-78
2022/12/31 08:19:29;;;;;;;1999.90;999.90;;;15.60;99.90;;;;;;6376886;22;20006;-77
2022/12/31 08:22:22;;;;;;;1999.90;999.90;;;15.80;99.90;;;;;;6348689;22;20010;-78
2022/12/31 08:25:11;;;;;;;1999.90;999.90;;;15.80;99.90;;;;;;6377265;22;20041;-77
2022/12/31 08:28:04;;;;;;;1999.90;999.90;;;15.90;99.90;;;;;;6376900;22;20056;-77
2022/12/31 08:31:00;;;;;;;1999.90;999.90;;;15.90;99.90;;;;;;6376622;22;20497;-77
2022/12/31 08:33:36;;;;;;;1999.90;999.90;;;15.90;99.90;;;;;;6346207;22;20446;-77
2022/12/31 08:36:24;;;;;;;1999.90;999.90;;;15.90;99.90;;;;;;6376676;22;20014;-78
2022/12/31 08:38:59;;;;;;;1999.90;999.90;;;15.90;99.90;;;;;;6376965;22;20013;-78
2022/12/31 08:41:40;;;;;;;1999.90;999.90;;;15.80;99.90;;;;;;6348445;22;20007;-78
2022/12/31 08:44:33;;;;;;;1999.90;999.90;;;15.90;99.90;;;;;;6378263;22;20082;-77
2022/12/31 08:47:01;;;;;;;1999.90;999.90;;;15.90;99.90;;;;;;6377882;22;20037;-84
2022/12/31 08:49:31;;;;;;;1999.90;999.90;;;15.90;99.90;;;;;;6378365;22;20007;-77
2022/12/31 08:51:58;;;;;;;1999.90;999.90;;;15.90;99.90;;;;;;6350588;22;20024;-78
2022/12/31 08:54:24;;;;;;;1999.90;999.90;;;15.90;99.90;;;;;;6350364;22;20010;-78
2022/12/31 08:57:19;;;;;;;1999.90;999.90;;;16.00;99.90;;;;;;6349942;22;20014;-78
2022/12/31 09:00:06;;;;;;;1999.90;999.90;;;16.00;99.90;;;;;;6378890;22;20438;-77
2022/12/31 09:03:07;;;;;;;1999.90;999.90;;;16.10;99.90;;;;;;6350751;22;20011;-77
2022/12/31 09:05:57;;;;;;;1999.90;999.90;;;16.10;99.90;;;;;;6378902;22;20009;-76
2022/12/31 09:09:01;;;;;;;1999.90;999.90;;;16.10;99.90;;;;;;6378452;22;19999;-81
2022/12/31 09:12:02;;;;;;;1999.90;999.90;;;16.10;99.90;;;;;;6350750;22;20006;-76
2022/12/31 09:14:53;;;;;;;1999.90;999.90;;;16.10;99.90;;;;;;6357251;22;20094;-77
2022/12/31 09:17:28;;;;;;;1999.90;999.90;;;16.20;99.90;;;;;;6349795;22;20010;-77
2022/12/31 09:19:54;;;;;;;1999.90;999.90;;;16.10;99.90;;;;;;6349783;22;20013;-77
2022/12/31 09:22:20;;;;;;;1999.90;999.90;;;16.20;99.90;;;;;;6377701;22;20007;-77
2022/12/31 09:24:46;;;;;;;1999.90;999.90;;;16.20;99.90;;;;;;6349794;22;20365;-77
2022/12/31 09:27:39;;;;;;;1999.90;999.90;;;16.20;99.90;;;;;;6377864;22;20104;-78
2022/12/31 09:30:11;;;;;;;1999.90;999.90;;;16.20;99.90;;;;;;6349536;22;20019;-77
2022/12/31 09:33:03;;;;;;;1999.90;999.90;;;16.10;99.90;;;;;;6377802;22;19998;-77
2022/12/31 09:35:51;;;;;;;1999.90;999.90;;;16.20;99.90;;;;;;6378588;22;20007;-76
2022/12/31 09:38:33;;;;;;;1999.90;999.90;;;16.20;99.90;;;;;;6350379;22;20003;-76
2022/12/31 09:41:13;;;;;;;1999.90;999.90;;;16.20;99.90;;;;;;6380818;22;20007;-76
2022/12/31 09:44:16;;;;;;;1999.90;999.90;;;16.10;99.90;;;;;;6378254;22;20007;-77
2022/12/31 09:47:29;;;;;;;1999.90;999.90;;;16.20;99.90;;;;;;6349767;22;20007;-77
2022/12/31 09:50:06;;;;;;;1999.90;999.90;;;16.30;99.90;;;;;;6350234;22;20470;-76
2022/12/31 09:53:01;;;;;;;1999.90;999.90;;;16.30;99.90;;;;;;6377934;22;20014;-75
2022/12/31 09:55:47;;;;;;;1999.90;999.90;;;16.40;99.90;;;;;;6378876;22;19999;-76
2022/12/31 09:58:34;;;;;;;1999.90;999.90;;;16.40;99.90;;;;;;6350866;22;20386;-75
2022/12/31 10:01:19;;;;;;;1999.90;999.90;;;16.40;99.90;;;;;;6349741;22;20497;-76
2022/12/31 10:04:06;;;;;;;1999.90;999.90;;;16.40;99.90;;;;;;6378679;22;20082;-76
2022/12/31 10:07:26;;;;;;;1999.90;999.90;;;16.40;99.90;;;;;;6376899;22;20473;-77
2022/12/31 10:10:10;;;;;;;1999.90;999.90;;;16.40;99.90;;;;;;6219298;23;20013;-75
2022/12/31 10:13:04;;;;;;;1999.90;999.90;;;16.40;99.90;;;;;;6362998;22;20031;-75
2022/12/31 10:15:40;;;;;;;1999.90;999.90;;;16.40;99.90;;;;;;6377782;22;20068;-75
2022/12/31 10:18:11;;;;;;;1999.90;999.90;;;16.50;99.90;;;;;;6377517;22;20055;-74
2022/12/31 10:21:15;;;;;;;1999.90;999.90;;;16.50;99.90;;;;;;6377636;22;20347;-80
2022/12/31 10:23:59;;;;;;;1999.90;999.90;;;16.60;99.90;;;;;;6378022;22;20010;-76
2022/12/31 10:26:45;;;;;;;1999.90;999.90;;;16.60;99.90;;;;;;6377850;22;20065;-75
2022/12/31 10:29:28;;;;;;;1999.90;999.90;;;16.70;99.90;;;;;;6377626;22;20011;-75
2022/12/31 10:32:00;;;;;;;1999.90;999.90;;;16.70;99.90;;;;;;6349786;22;20003;-79
2022/12/31 10:34:42;;;;;;;1999.90;999.90;;;16.80;99.90;;;;;;6378313;22;20390;-77
2022/12/31 10:37:22;;;;;;;1999.90;999.90;;;16.90;99.90;;;;;;6377912;22;20034;-75
2022/12/31 10:40:13;;;;;;;1999.90;999.90;;;16.90;99.90;;;;;;6352022;22;20009;-76
2022/12/31 10:42:38;;;;;;;1999.90;999.90;;;16.90;99.90;;;;;;6378758;22;20042;-77
2022/12/31 10:45:20;;;;;;;1999.90;999.90;;;16.90;99.90;;;;;;6377590;22;20003;-76
2022/12/31 10:47:48;;;;;;;1999.90;999.90;;;16.90;99.90;;;;;;6377860;22;20430;-77
2022/12/31 10:50:17;;;;;;;1999.90;999.90;;;16.90;99.90;;;;;;6378159;22;20011;-77
2022/12/31 10:52:55;;;;;;;1999.90;999.90;;;16.90;99.90;;;;;;6349603;22;20003;-77
2022/12/31 10:55:39;;;;;;;1999.90;999.90;;;16.90;99.90;;;;;;6378140;22;20014;-77
2022/12/31 10:58:30;;;;;;;1999.90;999.90;;;16.90;99.90;;;;;;6378226;22;20077;-78
2022/12/31 11:01:02;;;;;;;1999.90;999.90;;;17.00;99.90;;;;;;6377163;22;20003;-77
2022/12/31 11:04:10;;;;;;;1999.90;999.90;;;16.90;99.90;;;;;;6377469;22;20007;-77
2022/12/31 11:06:56;;;;;;;1999.90;999.90;;;17.10;99.90;;;;;;6377940;22;20003;-78
2022/12/31 11:10:10;;;;;;;1999.90;999.90;;;17.20;99.90;;;;;;6349682;22;20021;-79
2022/12/31 11:12:47;;;;;;;1999.90;999.90;;;17.20;99.90;;;;;;6257480;22;20003;-77
2022/12/31 11:15:28;;;;;;;1999.90;999.90;;;17.30;99.90;;;;;;6335495;22;20880;-78
2022/12/31 11:18:11;;;;;;;1999.90;999.90;;;17.40;99.90;;;;;;6328631;22;20050;-78
2022/12/31 11:20:43;;;;;;;1999.90;999.90;;;17.50;99.90;;;;;;6293342;22;20781;-78
2022/12/31 11:23:37;;;;;;;1999.90;999.90;;;17.50;99.90;;;;;;6317150;22;20000;-82
2022/12/31 11:26:27;;;;;;;1999.90;999.90;;;17.50;99.90;;;;;;6319357;22;20007;-79
2022/12/31 11:29:22;;;;;;;1999.90;999.90;;;17.50;99.90;;;;;;6348235;22;20018;-77
2022/12/31 11:32:05;;;;;;;1999.90;999.90;;;17.50;99.90;;;;;;6323397;22;20113;-77
2022/12/31 11:34:36;;;;;;;1999.90;999.90;;;17.60;99.90;;;;;;6319740;22;20014;-77
2022/12/31 11:37:19;;;;;;;1999.90;999.90;;;17.60;99.90;;;;;;6353480;22;19987;-75
2022/12/31 11:40:07;;;;;;;1999.90;999.90;;;17.70;99.90;;;;;;6374507;22;20022;-77
2022/12/31 11:42:41;;;;;;;1999.90;999.90;;;17.80;99.90;;;;;;6333806;22;20023;-78
2022/12/31 11:45:17;;;;;;;1999.90;999.90;;;17.90;99.90;;;;;;6354313;22;20004;-78
2022/12/31 11:48:11;;;;;;;1999.90;999.90;;;17.80;99.90;;;;;;6353715;22;19999;-77
2022/12/31 11:50:44;;;;;;;1999.90;999.90;;;17.90;99.90;;;;;;6360823;22;20012;-79
2022/12/31 11:53:22;;;;;;;1999.90;999.90;;;17.90;99.90;;;;;;6320340;22;20094;-79
2022/12/31 11:56:04;;;;;;;1999.90;999.90;;;17.90;99.90;;;;;;6351953;22;20459;-78
2022/12/31 11:58:30;;;;;;;1999.90;999.90;;;18.00;99.90;;;;;;6344492;22;20014;-77
2022/12/31 12:01:03;;;;;;;1999.90;999.90;;;18.00;99.90;;;;;;6345667;22;20011;-77
2022/12/31 12:03:29;;;;;;;1999.90;999.90;;;18.10;99.90;;;;;;6345250;22;20080;-77
2022/12/31 12:05:55;;;;;;;1999.90;999.90;;;18.20;99.90;;;;;;6344704;22;20067;-77
2022/12/31 12:08:22;;;;;;;1999.90;999.90;;;18.20;99.90;;;;;;6345078;22;20710;-77
2022/12/31 12:10:52;;;;;;;1999.90;999.90;;;18.20;99.90;;;;;;6343508;22;20018;-77
2022/12/31 12:13:25;;;;;;;1999.90;999.90;;;18.30;99.90;;;;;;6346325;22;19999;-80
2022/12/31 12:15:57;;;;;;;1999.90;999.90;;;18.30;99.90;;;;;;6318148;22;20015;-76
2022/12/31 12:19:05;;;;;;;1999.90;999.90;;;18.30;99.90;;;;;;6347351;22;20003;-78
2022/12/31 12:21:32;;;;;;;1999.90;999.90;;;18.40;99.90;;;;;;6219199;23;20043;-78
2022/12/31 12:24:17;;;;;;;1999.90;999.90;;;18.30;99.90;;;;;;6324819;22;20014;-78
2022/12/31 12:26:44;;;;;;;1999.90;999.90;;;18.30;99.90;;;;;;6344940;22;20476;-75
2022/12/31 12:29:17;;;;;;;1999.90;999.90;;;18.30;99.90;;;;;;6345642;22;20007;-75
2022/12/31 12:31:57;;;;;;;1999.90;999.90;;;18.30;99.90;;;;;;6346182;22;19999;-77
2022/12/31 12:34:31;;;;;;;1999.90;999.90;;;18.20;99.90;;;;;;6346087;22;20068;-78
2022/12/31 12:36:57;;;;;;;1999.90;999.90;;;18.30;99.90;;;;;;6346744;22;20004;-80
2022/12/31 12:39:31;;;;;;;1999.90;999.90;;;18.30;99.90;;;;;;6321284;22;20342;-83
2022/12/31 12:42:06;;;;;;;1999.90;999.90;;;18.20;99.90;;;;;;6319088;22;20007;-77
2022/12/31 12:44:34;;;;;;;1999.90;999.90;;;18.20;99.90;;;;;;6347738;22;20828;-77
2022/12/31 12:47:02;;;;;;;1999.90;999.90;;;18.10;99.90;;;;;;6351716;22;20422;-81
2022/12/31 12:49:31;;;;;;;1999.90;999.90;;;18.10;99.90;;;;;;6352457;22;20011;-80
2022/12/31 12:52:12;;;;;;;1999.90;999.90;;;18.10;99.90;;;;;;6352517;22;20478;-81
2022/12/31 12:54:58;;;;;;;1999.90;999.90;;;18.10;99.90;;;;;;6347650;22;20046;-78
2022/12/31 12:57:27;;;;;;;1999.90;999.90;;;18.10;99.90;;;;;;6346536;22;20057;-78
2022/12/31 13:00:13;;;;;;;1999.90;999.90;;;18.20;99.90;;;;;;6349042;22;20003;-80
2022/12/31 13:03:21;;;;;;;1999.90;999.90;;;18.20;99.90;;;;;;6347326;22;20057;-79
2022/12/31 13:05:51;;;;;;;1999.90;999.90;;;18.20;99.90;;;;;;6347072;22;20047;-78
2022/12/31 13:08:44;;;;;;;1999.90;999.90;;;18.20;99.90;;;;;;6319288;22;20003;-76
2022/12/31 13:11:49;;;;;;;1999.90;999.90;;;18.10;99.90;;;;;;6346260;22;20042;-76
2022/12/31 13:14:21;;;;;;;1999.90;999.90;;;18.20;99.90;;;;;;6315767;22;19999;-76
2022/12/31 13:17:03;;;;;;;1999.90;999.90;;;18.10;99.90;;;;;;6346714;22;20015;-77
2022/12/31 13:19:57;;;;;;;1999.90;999.90;;;18.10;99.90;;;;;;6346246;22;20004;-77
2022/12/31 13:22:48;;;;;;;1999.90;999.90;;;18.10;99.90;;;;;;6323074;22;20056;-76
2022/12/31 13:25:26;;;;;;;1999.90;999.90;;;18.10;99.90;;;;;;6346977;22;20090;-76
2022/12/31 13:27:56;;;;;;;1999.90;999.90;;;18.10;99.90;;;;;;6345034;22;20015;-76
2022/12/31 13:30:31;;;;;;;1999.90;999.90;;;18.20;99.90;;;;;;6346059;22;20011;-78
2022/12/31 13:33:19;;;;;;;1999.90;999.90;;;18.20;99.90;;;;;;6323241;22;20007;-78
2022/12/31 13:35:47;;;;;;;1999.90;999.90;;;18.10;99.90;;;;;;6347166;22;20065;-77
2022/12/31 13:38:21;;;;;;;1999.90;999.90;;;18.10;99.90;;;;;;6345630;22;20008;-77
2022/12/31 13:40:56;;;;;;;1999.90;999.90;;;18.20;99.90;;;;;;6349028;22;20050;-78
2022/12/31 13:43:37;;;;;;;1999.90;999.90;;;18.20;99.90;;;;;;6351158;22;20076;-80
2022/12/31 13:46:14;;;;;;;1999.90;999.90;;;18.10;99.90;;;;;;6348223;22;20014;-81
2022/12/31 13:48:56;;;;;;;1999.90;999.90;;;18.10;99.90;;;;;;6347983;22;20007;-80
2022/12/31 13:51:30;;;;;;;1999.90;999.90;;;18.00;99.90;;;;;;6349409;22;20014;-78
2022/12/31 13:54:19;;;;;;;1999.90;999.90;;;17.90;99.90;;;;;;6318698;22;19999;-79
2022/12/31 13:56:48;;;;;;;1999.90;999.90;;;17.80;99.90;;;;;;6318555;22;20011;-78
2022/12/31 13:59:17;;;;;;;1999.90;999.90;;;17.80;99.90;;;;;;6346831;22;20007;-78
2022/12/31 14:02:08;;;;;;;1999.90;999.90;;;17.80;99.90;;;;;;6347118;22;20011;-80
2022/12/31 14:04:41;;;;;;;1999.90;999.90;;;17.70;99.90;;;;;;6345564;22;20006;-79
2022/12/31 14:07:14;;;;;;;1999.90;999.90;;;17.60;99.90;;;;;;6348554;22;20018;-80
2022/12/31 14:09:41;;;;;;;1999.90;999.90;;;17.40;99.90;;;;;;6321991;22;20041;-79
2022/12/31 14:12:20;;;;;;;1999.90;999.90;;;17.30;99.90;;;;;;6321563;22;20453;-82
2022/12/31 14:15:04;;;;;;;1999.90;999.90;;;17.30;99.90;;;;;;6346415;22;20370;-81
2022/12/31 14:17:38;;;;;;;1999.90;999.90;;;17.30;99.90;;;;;;6348744;22;20003;-79
2022/12/31 14:20:10;;;;;;;1999.90;999.90;;;17.20;99.90;;;;;;6349859;22;20418;-75
2022/12/31 14:22:49;;;;;;;1999.90;999.90;;;17.20;99.90;;;;;;6347555;22;20510;-85
2022/12/31 14:25:33;;;;;;;1999.90;999.90;;;17.10;99.90;;;;;;6323109;22;20003;-82
2022/12/31 14:28:03;;;;;;;1999.90;999.90;;;17.10;99.90;;;;;;6320673;22;20007;-79
2022/12/31 14:30:35;;;;;;;1999.90;999.90;;;17.10;99.90;;;;;;6346941;22;20018;-78
2022/12/31 14:33:21;;;;;;;1999.90;999.90;;;17.10;99.90;;;;;;6346870;22;20000;-78
2022/12/31 14:36:17;;;;;;;1999.90;999.90;;;17.10;99.90;;;;;;6319845;22;20417;-77
2022/12/31 14:39:20;;;;;;;1999.90;999.90;;;17.00;99.90;;;;;;6318837;22;20354;-83
2022/12/31 14:42:22;;;;;;;1999.90;999.90;;;16.70;99.90;;;;;;6321069;22;20053;-78
2022/12/31 14:45:02;;;;;;;1999.90;999.90;;;16.50;99.90;;;;;;6349288;22;20003;-78
2022/12/31 14:47:52;;;;;;;1999.90;999.90;;;16.20;99.90;;;;;;6346815;22;20007;-78
2022/12/31 14:50:25;;;;;;;1999.90;999.90;;;16.10;99.90;;;;;;6367254;22;20882;-78
2022/12/31 14:53:05;;;;;;;1999.90;999.90;;;16.20;99.90;;;;;;6365533;22;19993;-82
2022/12/31 14:55:35;;;;;;;1999.90;999.90;;;16.20;99.90;;;;;;6348126;22;20473;-80
2022/12/31 14:58:19;;;;;;;1999.90;999.90;;;16.20;99.90;;;;;;6348700;22;20507;-81
2022/12/31 15:00:56;;;;;;;1999.90;999.90;;;16.20;99.90;;;;;;6348591;22;20018;-80
2022/12/31 15:03:29;;;;;;;1999.90;999.90;;;16.20;99.90;;;;;;6320225;22;20012;-81
2022/12/31 15:06:19;;;;;;;1999.90;999.90;;;16.10;99.90;;;;;;6346280;22;20064;-80
2022/12/31 15:08:48;;;;;;;1999.90;999.90;;;16.00;99.90;;;;;;6318770;22;20471;-78
2022/12/31 15:11:41;;;;;;;1999.90;999.90;;;15.80;99.90;;;;;;6345021;22;19999;-78
2022/12/31 15:14:22;;;;;;;1999.90;999.90;;;15.80;99.90;;;;;;6347030;22;20459;-79
2022/12/31 15:17:13;;;;;;;1999.90;999.90;;;15.80;99.90;;;;;;6344800;22;20010;-78
2022/12/31 15:20:03;;;;;;;1999.90;999.90;;;15.90;99.90;;;;;;6347315;22;20439;-78
2022/12/31 15:22:30;;;;;;;1999.90;999.90;;;15.80;99.90;;;;;;6347847;22;20068;-79
2022/12/31 15:24:56;;;;;;;1999.90;999.90;;;15.80;99.90;;;;;;6346071;22;20034;-78
2022/12/31 15:27:35;;;;;;;1999.90;999.90;;;15.70;99.90;;;;;;6321738;22;20007;-79
2022/12/31 15:30:03;;;;;;;1999.90;999.90;;;15.60;99.90;;;;;;6350523;22;20037;-77
2022/12/31 15:32:35;;;;;;;1999.90;999.90;;;15.70;99.90;;;;;;6348026;22;20068;-81
2022/12/31 15:35:19;;;;;;;1999.90;999.90;;;15.90;99.90;;;;;;6349319;22;20041;-80
2022/12/31 15:38:00;;;;;;;1999.90;999.90;;;15.90;99.90;;;;;;6347405;22;20003;-80
2022/12/31 15:40:28;;;;;;;1999.90;999.90;;;15.80;99.90;;;;;;6348306;22;20029;-81
2022/12/31 15:43:15;;;;;;;1999.90;999.90;;;15.90;99.90;;;;;;6320910;22;20003;-78
2022/12/31 15:45:42;;;;;;;1999.90;999.90;;;16.00;99.90;;;;;;6346542;22;20035;-78
2022/12/31 15:48:15;;;;;;;1999.90;999.90;;;16.00;99.90;;;;;;6346660;22;20010;-77
2022/12/31 15:50:43;;;;;;;1999.90;999.90;;;16.10;99.90;;;;;;6350555;22;20356;-81
2022/12/31 15:53:23;;;;;;;1999.90;999.90;;;16.10;99.90;;;;;;6343504;22;20003;-77
2022/12/31 15:55:51;;;;;;;1999.90;999.90;;;16.10;99.90;;;;;;6345311;22;20022;-77
2022/12/31 15:58:24;;;;;;;1999.90;999.90;;;16.00;99.90;;;;;;6312246;22;20018;-77
2022/12/31 16:00:59;;;;;;;1999.90;999.90;;;16.10;99.90;;;;;;6343981;22;20011;-76
2022/12/31 16:03:27;;;;;;;1999.90;999.90;;;15.90;99.90;;;;;;6344932;22;20003;-77
2022/12/31 16:06:00;;;;;;;1999.90;999.90;;;15.90;99.90;;;;;;6316508;22;20090;-77
2022/12/31 16:08:31;;;;;;;1999.90;999.90;;;16.00;99.90;;;;;;6317008;22;20010;-77
2022/12/31 16:10:57;;;;;;;1999.90;999.90;;;16.20;99.90;;;;;;6317083;22;20014;-77
2022/12/31 16:13:26;;;;;;;1999.90;999.90;;;16.30;99.90;;;;;;6344813;22;19999;-77
2022/12/31 16:15:59;;;;;;;1999.90;999.90;;;16.40;99.90;;;;;;6316752;22;20026;-77
2022/12/31 16:18:34;;;;;;;1999.90;999.90;;;16.40;99.90;;;;;;6345397;22;20007;-77
2022/12/31 16:21:00;;;;;;;1999.90;999.90;;;16.40;99.90;;;;;;6343832;22;20014;-76
2022/12/31 16:23:26;;;;;;;1999.90;999.90;;;16.20;99.90;;;;;;6316436;22;22393;-77
2022/12/31 16:25:55;;;;;;;1999.90;999.90;;;16.20;99.90;;;;;;6348297;22;19995;-76
2022/12/31 16:28:26;;;;;;;1999.90;999.90;;;16.20;99.90;;;;;;6346280;22;19999;-76
2022/12/31 16:31:15;;;;;;;1999.90;999.90;;;16.00;99.90;;;;;;6346002;22;20113;-76
2022/12/31 16:33:41;;;;;;;1999.90;999.90;;;16.10;99.90;;;;;;6319885;22;20080;-76
2022/12/31 16:36:20;;;;;;;1999.90;999.90;;;15.90;99.90;;;;;;6344790;22;20081;-76
2022/12/31 16:38:45;;;;;;;1999.90;999.90;;;15.90;99.90;;;;;;6350999;22;20011;-80
2022/12/31 16:41:19;;;;;;;1999.90;999.90;;;15.80;99.90;;;;;;6323425;22;20011;-79
2022/12/31 16:43:47;;;;;;;1999.90;999.90;;;15.80;99.90;;;;;;6349994;22;19999;-80
2022/12/31 16:46:16;;;;;;;1999.90;999.90;;;15.80;99.90;;;;;;6347081;22;20455;-78
2022/12/31 16:48:54;;;;;;;1999.90;999.90;;;15.60;99.90;;;;;;6321346;22;20002;-79
2022/12/31 16:51:26;;;;;;;1999.90;999.90;;;15.80;99.90;;;;;;6323032;22;20008;-79
2022/12/31 16:53:52;;;;;;;1999.90;999.90;;;15.90;99.90;;;;;;6319316;22;20046;-78
2022/12/31 16:56:35;;;;;;;1999.90;999.90;;;15.80;99.90;;;;;;6320011;22;20031;-78
2022/12/31 16:59:23;;;;;;;1999.90;999.90;;;16.00;99.90;;;;;;6349085;22;20098;-81
2022/12/31 17:01:50;;;;;;;1999.90;999.90;;;16.00;99.90;;;;;;6307458;22;20013;-81
2022/12/31 17:04:19;;;;;;;1999.90;999.90;;;15.90;99.90;;;;;;6350072;22;20009;-79
2022/12/31 17:06:46;;;;;;;1999.90;999.90;;;15.70;99.90;;;;;;6348149;22;20512;-79
2022/12/31 17:09:20;;;;;;;1999.90;999.90;;;15.80;99.90;;;;;;6325741;22;20011;-80
2022/12/31 17:11:57;;;;;;;1999.90;999.90;;;16.00;99.90;;;;;;6324785;22;20474;-83
2022/12/31 17:14:26;;;;;;;1999.90;999.90;;;16.10;99.90;;;;;;6349386;22;20017;-80